»·PEaware :: SWA1328 KSFO-KSNA

SWA1328 :: KSFO-KSNA

FLIGHT INFORMATION

Flight Status: Arrived
Operator:
Southwest Airlines
More flights by this operator :: More flights under this callsign
Pilot: Anthony T. (15846)
Aircraft: BOEING 737-800
(B738)
More flights by this aircraft type
Origin: KSFO San Francisco Intl
United States
Destination: KSNA John Wayne-Orange Co
United States
More flights between these airports :: More routes between these airports
Route: +SSTIK4 YYUNG TILLT TILLT2
File this flight plan on PilotEdge
Remarks:
Altitude:
(Current/Filed)
27,000ft
Speed:
(Current/Filed)
315kts
Departed: 20-Aug-19 08:11 AM
Arrived: 20-Aug-19 09:15 AM
Distance/Time
Traveled:
323nm/1:03
Distance/Time
To Go:
Arrived

Flight Plot

Page will automatically refresh every two minutes.

Flight plan parsing failed; only flown route is shown


Map Options




Map Legend


Flown Route
Filed Route
Departure Airport
Arrival Airport
Navaid (VOR, NDB)
Fix

Horizontal Profiles

Position Reports

Time Latitude Longitude Heading Altitude Ground
Speed
20-Aug-19 08:01 37.611683 -122.385971 34 31ft 0kts
20-Aug-19 08:02 37.611683 -122.385971 34 31ft 0kts
20-Aug-19 08:03 37.611683 -122.385971 34 31ft 0kts
20-Aug-19 08:04 37.611683 -122.385971 34 31ft 0kts
20-Aug-19 08:05 37.611241 -122.386186 116 31ft 0kts
20-Aug-19 08:06 37.611241 -122.386187 116 31ft 0kts
20-Aug-19 08:07 37.611241 -122.386187 116 31ft 0kts
20-Aug-19 08:08 37.609080 -122.383857 136 31ft 11kts
20-Aug-19 08:09 37.608898 -122.383547 121 31ft 5kts
20-Aug-19 08:10 37.630896 -122.367447 22 788ft 207kts
20-Aug-19 08:11 37.697807 -122.369328 325 4163ft 267kts
20-Aug-19 08:12 37.699757 -122.447804 215 6839ft 266kts
20-Aug-19 08:13 37.625681 -122.453970 188 9847ft 279kts
20-Aug-19 08:14 37.541109 -122.466952 186 12813ft 328kts
20-Aug-19 08:15 37.447332 -122.482493 188 15431ft 337kts
20-Aug-19 08:16 37.349841 -122.500623 188 18132ft 350kts
20-Aug-19 08:17 37.248884 -122.519354 189 21079ft 365kts
20-Aug-19 08:18 37.145119 -122.538556 189 24299ft 383kts
20-Aug-19 08:19 37.038258 -122.557831 187 27104ft 398kts
20-Aug-19 08:20 36.936985 -122.497987 149 27139ft 434kts
20-Aug-19 08:21 36.834175 -122.400563 148 27166ft 479kts
20-Aug-19 08:22 36.728166 -122.300186 148 27091ft 478kts
20-Aug-19 08:23 36.621178 -122.199246 148 27090ft 478kts
20-Aug-19 08:24 36.514781 -122.098135 144 27082ft 480kts
20-Aug-19 08:25 36.412413 -121.991086 144 27091ft 480kts
20-Aug-19 08:26 36.310523 -121.884792 144 27090ft 480kts
20-Aug-19 08:27 36.207904 -121.778132 144 27091ft 480kts
20-Aug-19 08:28 36.105852 -121.672427 144 27091ft 480kts
20-Aug-19 08:29 36.001923 -121.565157 144 27087ft 480kts
20-Aug-19 08:30 35.897644 -121.457910 144 27084ft 480kts
20-Aug-19 08:31 35.794901 -121.352609 144 27090ft 480kts
20-Aug-19 08:32 35.691245 -121.246750 145 27081ft 479kts
20-Aug-19 08:33 35.587977 -121.141635 145 27149ft 486kts
20-Aug-19 08:34 35.484159 -121.033997 144 27084ft 485kts
20-Aug-19 08:35 35.383185 -120.924675 144 27082ft 486kts
20-Aug-19 08:36 35.281550 -120.814987 144 27082ft 486kts
20-Aug-19 08:37 35.180078 -120.705859 144 27082ft 486kts
20-Aug-19 08:38 35.078619 -120.597110 144 27083ft 485kts
20-Aug-19 08:39 34.970502 -120.500912 151 27086ft 483kts
20-Aug-19 08:40 34.857638 -120.409604 151 27102ft 493kts
20-Aug-19 08:41 34.743709 -120.317711 152 27083ft 486kts
20-Aug-19 08:42 34.630467 -120.226823 152 27081ft 486kts
20-Aug-19 08:43 34.517584 -120.136617 152 27076ft 486kts
20-Aug-19 08:44 34.404844 -120.046812 152 27039ft 486kts
20-Aug-19 08:45 34.291281 -119.956675 152 26521ft 487kts
20-Aug-19 08:46 34.177255 -119.866442 152 26058ft 486kts
20-Aug-19 08:47 34.069013 -119.773668 134 25050ft 470kts
20-Aug-19 08:48 34.002148 -119.639996 125 22560ft 455kts
20-Aug-19 08:49 33.937751 -119.511715 125 20975ft 410kts
20-Aug-19 08:51 33.879348 -119.395035 124 20581ft 406kts
20-Aug-19 08:52 33.821697 -119.278004 124 17792ft 381kts
20-Aug-19 08:53 33.766385 -119.166077 124 15197ft 371kts
20-Aug-19 08:54 33.712051 -119.056455 123 12589ft 361kts
20-Aug-19 08:55 33.660347 -118.952465 122 11000ft 333kts
20-Aug-19 08:56 33.609921 -118.851326 122 11017ft 341kts
20-Aug-19 08:57 33.567207 -118.744700 102 10277ft 345kts
20-Aug-19 08:58 33.549915 -118.639621 100 9031ft 295kts
20-Aug-19 08:59 33.533476 -118.538229 100 9027ft 298kts
20-Aug-19 09:00 33.521033 -118.435363 91 8390ft 305kts
20-Aug-19 09:01 33.519699 -118.331626 76 6980ft 284kts
20-Aug-19 09:02 33.546473 -118.243833 67 5609ft 276kts
20-Aug-19 09:03 33.573149 -118.168356 55 5021ft 227kts
20-Aug-19 09:04 33.608706 -118.104114 54 4999ft 228kts
20-Aug-19 09:05 33.643968 -118.040800 54 5019ft 228kts
20-Aug-19 09:06 33.679071 -117.977590 54 4705ft 218kts
20-Aug-19 09:07 33.718932 -117.932124 27 3618ft 199kts
20-Aug-19 09:08 33.767341 -117.901212 26 3390ft 192kts
20-Aug-19 09:08 33.799344 -117.872734 63 3386ft 178kts
20-Aug-19 09:10 33.813110 -117.804395 81 2646ft 178kts
20-Aug-19 09:11 33.784969 -117.782763 225 2206ft 167kts
20-Aug-19 09:11 33.759096 -117.818254 226 2005ft 167kts
20-Aug-19 09:13 33.711958 -117.846664 206 938ft 150kts
20-Aug-19 09:14 33.676832 -117.868143 207 65ft 122kts
20-Aug-19 09:14 33.669252 -117.871723 132 64ft 0kts
20-Aug-19 09:16 33.669251 -117.871722 132 64ft 0kts
20-Aug-19 09:16 33.671404 -117.868628 34 64ft 23kts
20-Aug-19 09:17 33.675409 -117.865113 95 64ft 3kts

Navigation Log

Ident Type
Flight plan parsing failed, navigation log unavailable